sensor_id;sensor_type;location;lat;lon;timestamp;pressure;altitude;pressure_sealevel;temperature;humidity
6096;BME280;25081;42.698;23.298;2023-02-18T00:00:17;96030.28;;;3.56;61.82
6096;BME280;25081;42.698;23.298;2023-02-18T00:02:46;96029.02;;;3.64;61.55
6096;BME280;25081;42.698;23.298;2023-02-18T00:05:14;96025.17;;;3.54;61.56
6096;BME280;25081;42.698;23.298;2023-02-18T00:07:44;96016.61;;;3.56;61.64
6096;BME280;25081;42.698;23.298;2023-02-18T00:10:13;96012.48;;;3.54;61.98
6096;BME280;25081;42.698;23.298;2023-02-18T00:12:41;96014.84;;;3.61;61.78
6096;BME280;25081;42.698;23.298;2023-02-18T00:15:11;96010.72;;;3.58;61.18
6096;BME280;25081;42.698;23.298;2023-02-18T00:17:39;96008.52;;;3.50;61.73
6096;BME280;25081;42.698;23.298;2023-02-18T00:20:09;96010.67;;;3.54;61.28
6096;BME280;25081;42.698;23.298;2023-02-18T00:22:38;96001.11;;;3.49;61.97
6096;BME280;25081;42.698;23.298;2023-02-18T00:25:08;96004.03;;;3.46;61.70
6096;BME280;25081;42.698;23.298;2023-02-18T00:27:38;95996.17;;;3.50;62.00
6096;BME280;25081;42.698;23.298;2023-02-18T00:30:08;95991.55;;;3.48;61.79
6096;BME280;25081;42.698;23.298;2023-02-18T00:32:37;95977.34;;;3.41;62.25
6096;BME280;25081;42.698;23.298;2023-02-18T00:35:07;95975.80;;;3.34;62.48
6096;BME280;25081;42.698;23.298;2023-02-18T00:37:36;95979.42;;;3.33;62.85
6096;BME280;25081;42.698;23.298;2023-02-18T00:40:07;95981.52;;;3.26;62.68
6096;BME280;25081;42.698;23.298;2023-02-18T00:42:35;95973.12;;;3.26;62.66
6096;BME280;25081;42.698;23.298;2023-02-18T00:45:05;95972.12;;;3.23;63.12
6096;BME280;25081;42.698;23.298;2023-02-18T00:47:34;95977.06;;;3.22;63.46
6096;BME280;25081;42.698;23.298;2023-02-18T00:50:03;95966.45;;;3.10;63.49
6096;BME280;25081;42.698;23.298;2023-02-18T00:52:31;95976.87;;;2.98;64.31
6096;BME280;25081;42.698;23.298;2023-02-18T00:55:00;95971.66;;;3.02;64.28
6096;BME280;25081;42.698;23.298;2023-02-18T00:57:29;95967.70;;;3.02;64.17
6096;BME280;25081;42.698;23.298;2023-02-18T00:59:57;95974.20;;;3.11;63.55
6096;BME280;25081;42.698;23.298;2023-02-18T01:02:26;95968.09;;;3.11;63.63
6096;BME280;25081;42.698;23.298;2023-02-18T01:04:56;95967.07;;;3.08;63.55
6096;BME280;25081;42.698;23.298;2023-02-18T01:07:25;95965.08;;;3.02;63.37
6096;BME280;25081;42.698;23.298;2023-02-18T01:09:54;95964.76;;;3.05;63.06
6096;BME280;25081;42.698;23.298;2023-02-18T01:12:23;95966.30;;;3.11;62.62
6096;BME280;25081;42.698;23.298;2023-02-18T01:14:52;95974.31;;;3.06;62.53
6096;BME280;25081;42.698;23.298;2023-02-18T01:17:21;95969.53;;;3.05;62.81
6096;BME280;25081;42.698;23.298;2023-02-18T01:19:49;95963.44;;;3.05;62.74
6096;BME280;25081;42.698;23.298;2023-02-18T01:22:18;95961.79;;;3.04;62.83
6096;BME280;25081;42.698;23.298;2023-02-18T01:24:47;95967.22;;;3.02;62.81
6096;BME280;25081;42.698;23.298;2023-02-18T01:27:15;95968.39;;;3.08;62.90
6096;BME280;25081;42.698;23.298;2023-02-18T01:29:44;95970.20;;;3.07;62.85
6096;BME280;25081;42.698;23.298;2023-02-18T01:32:13;95962.18;;;3.13;62.62
6096;BME280;25081;42.698;23.298;2023-02-18T01:34:42;95955.52;;;3.01;63.46
6096;BME280;25081;42.698;23.298;2023-02-18T01:37:11;95960.95;;;2.99;63.65
6096;BME280;25081;42.698;23.298;2023-02-18T01:39:39;95951.02;;;2.93;63.80
6096;BME280;25081;42.698;23.298;2023-02-18T01:42:13;95959.09;;;2.96;63.58
6096;BME280;25081;42.698;23.298;2023-02-18T01:44:42;95960.89;;;2.91;63.33
6096;BME280;25081;42.698;23.298;2023-02-18T01:47:11;95968.88;;;2.81;63.86
6096;BME280;25081;42.698;23.298;2023-02-18T01:49:39;95963.97;;;2.86;63.45
6096;BME280;25081;42.698;23.298;2023-02-18T01:54:37;95974.50;;;2.86;63.91
6096;BME280;25081;42.698;23.298;2023-02-18T01:57:05;95976.63;;;2.83;64.30
6096;BME280;25081;42.698;23.298;2023-02-18T01:59:33;95985.45;;;2.78;64.23
6096;BME280;25081;42.698;23.298;2023-02-18T02:02:02;95983.96;;;2.75;64.04
6096;BME280;25081;42.698;23.298;2023-02-18T02:04:30;95979.36;;;2.77;64.07
6096;BME280;25081;42.698;23.298;2023-02-18T02:06:59;95986.91;;;2.72;64.29
6096;BME280;25081;42.698;23.298;2023-02-18T02:09:28;95976.37;;;2.72;64.65
6096;BME280;25081;42.698;23.298;2023-02-18T02:12:27;95966.52;;;2.74;64.46
6096;BME280;25081;42.698;23.298;2023-02-18T02:15:04;95967.27;;;2.67;64.47
6096;BME280;25081;42.698;23.298;2023-02-18T02:17:35;95967.60;;;2.68;64.36
6096;BME280;25081;42.698;23.298;2023-02-18T02:20:23;95971.38;;;2.65;64.76
6096;BME280;25081;42.698;23.298;2023-02-18T02:23:16;95971.28;;;2.53;64.37
6096;BME280;25081;42.698;23.298;2023-02-18T02:25:55;95977.39;;;2.57;64.56
6096;BME280;25081;42.698;23.298;2023-02-18T02:28:38;95974.11;;;2.59;65.14
6096;BME280;25081;42.698;23.298;2023-02-18T02:31:19;95975.89;;;2.55;65.37
6096;BME280;25081;42.698;23.298;2023-02-18T02:36:32;95979.52;;;2.40;65.75
6096;BME280;25081;42.698;23.298;2023-02-18T02:39:01;95962.42;;;2.40;66.27
6096;BME280;25081;42.698;23.298;2023-02-18T02:41:38;95955.36;;;2.41;66.25
6096;BME280;25081;42.698;23.298;2023-02-18T02:44:06;95951.23;;;2.38;66.32
6096;BME280;25081;42.698;23.298;2023-02-18T02:46:36;95945.22;;;2.46;66.33
6096;BME280;25081;42.698;23.298;2023-02-18T02:49:07;95948.78;;;2.41;66.28
6096;BME280;25081;42.698;23.298;2023-02-18T02:51:35;95936.66;;;2.26;66.58
6096;BME280;25081;42.698;23.298;2023-02-18T02:54:13;95944.89;;;2.27;66.85
6096;BME280;25081;42.698;23.298;2023-02-18T02:56:40;95953.76;;;2.26;66.72
6096;BME280;25081;42.698;23.298;2023-02-18T02:59:09;95964.59;;;2.23;67.19
6096;BME280;25081;42.698;23.298;2023-02-18T03:01:40;95962.05;;;2.17;67.25
6096;BME280;25081;42.698;23.298;2023-02-18T03:04:33;95975.66;;;2.13;67.08
6096;BME280;25081;42.698;23.298;2023-02-18T03:07:10;95976.13;;;2.12;67.14
6096;BME280;25081;42.698;23.298;2023-02-18T03:09:41;95973.16;;;2.11;67.48
6096;BME280;25081;42.698;23.298;2023-02-18T03:12:11;95969.14;;;2.21;67.65
6096;BME280;25081;42.698;23.298;2023-02-18T03:14:40;95959.69;;;2.28;67.39
6096;BME280;25081;42.698;23.298;2023-02-18T03:17:09;95960.59;;;2.19;67.63
6096;BME280;25081;42.698;23.298;2023-02-18T03:19:37;95961.53;;;2.14;67.80
6096;BME280;25081;42.698;23.298;2023-02-18T03:22:06;95959.24;;;2.15;67.78
6096;BME280;25081;42.698;23.298;2023-02-18T03:24:35;95974.05;;;2.16;67.55
6096;BME280;25081;42.698;23.298;2023-02-18T03:27:05;95989.42;;;2.11;68.00
6096;BME280;25081;42.698;23.298;2023-02-18T03:29:33;95772.84;;;0.77;67.83
6096;BME280;25081;42.698;23.298;2023-02-18T03:32:02;95991.53;;;2.07;68.25
6096;BME280;25081;42.698;23.298;2023-02-18T03:34:30;95996.12;;;2.05;68.17
6096;BME280;25081;42.698;23.298;2023-02-18T03:36:59;96002.73;;;2.09;68.06
6096;BME280;25081;42.698;23.298;2023-02-18T03:39:29;96017.50;;;2.06;67.96
6096;BME280;25081;42.698;23.298;2023-02-18T03:41:57;96016.00;;;2.04;67.78
6096;BME280;25081;42.698;23.298;2023-02-18T03:44:26;96011.16;;;1.99;67.60
6096;BME280;25081;42.698;23.298;2023-02-18T03:46:55;96010.00;;;1.97;67.64
6096;BME280;25081;42.698;23.298;2023-02-18T03:49:24;96006.20;;;1.96;67.62
6096;BME280;25081;42.698;23.298;2023-02-18T03:51:52;96012.93;;;1.94;67.42
6096;BME280;25081;42.698;23.298;2023-02-18T03:54:21;96017.80;;;2.03;68.03
6096;BME280;25081;42.698;23.298;2023-02-18T03:56:49;96019.94;;;2.04;68.10
6096;BME280;25081;42.698;23.298;2023-02-18T03:59:18;96017.85;;;1.93;68.28
6096;BME280;25081;42.698;23.298;2023-02-18T04:01:46;96019.77;;;1.91;68.32
6096;BME280;25081;42.698;23.298;2023-02-18T04:04:15;96007.12;;;1.91;68.45
6096;BME280;25081;42.698;23.298;2023-02-18T04:06:44;96008.26;;;1.75;68.61
6096;BME280;25081;42.698;23.298;2023-02-18T04:09:13;96003.38;;;1.80;68.87
6096;BME280;25081;42.698;23.298;2023-02-18T04:11:41;96001.22;;;1.93;68.39
6096;BME280;25081;42.698;23.298;2023-02-18T04:14:10;96003.09;;;1.96;68.40
6096;BME280;25081;42.698;23.298;2023-02-18T04:16:38;96004.28;;;2.02;68.07
6096;BME280;25081;42.698;23.298;2023-02-18T04:19:07;95996.39;;;2.02;68.01
6096;BME280;25081;42.698;23.298;2023-02-18T04:21:36;95989.82;;;2.02;68.26
6096;BME280;25081;42.698;23.298;2023-02-18T04:24:05;95989.79;;;1.98;68.34
6096;BME280;25081;42.698;23.298;2023-02-18T04:29:02;95980.55;;;1.94;68.75
6096;BME280;25081;42.698;23.298;2023-02-18T04:31:31;95983.80;;;1.92;68.71
6096;BME280;25081;42.698;23.298;2023-02-18T04:34:00;95981.42;;;1.71;69.28
6096;BME280;25081;42.698;23.298;2023-02-18T04:36:29;95976.56;;;1.76;69.27
6096;BME280;25081;42.698;23.298;2023-02-18T04:38:57;95983.75;;;1.60;70.13
6096;BME280;25081;42.698;23.298;2023-02-18T04:41:26;95981.27;;;1.72;69.69
6096;BME280;25081;42.698;23.298;2023-02-18T04:43:55;95979.38;;;1.79;69.38
6096;BME280;25081;42.698;23.298;2023-02-18T04:46:24;95978.98;;;1.87;69.33
6096;BME280;25081;42.698;23.298;2023-02-18T04:48:53;95983.91;;;1.86;69.31
6096;BME280;25081;42.698;23.298;2023-02-18T04:51:22;95992.92;;;1.84;68.93
6096;BME280;25081;42.698;23.298;2023-02-18T04:53:50;95991.31;;;1.87;69.78
6096;BME280;25081;42.698;23.298;2023-02-18T04:56:19;95992.66;;;1.91;69.37
6096;BME280;25081;42.698;23.298;2023-02-18T04:58:48;95999.48;;;1.97;69.07
6096;BME280;25081;42.698;23.298;2023-02-18T05:01:16;96001.09;;;1.94;68.97
6096;BME280;25081;42.698;23.298;2023-02-18T05:03:44;96003.84;;;1.93;69.03
6096;BME280;25081;42.698;23.298;2023-02-18T05:06:13;96014.66;;;1.90;69.09
6096;BME280;25081;42.698;23.298;2023-02-18T05:08:42;96020.56;;;1.88;68.57
6096;BME280;25081;42.698;23.298;2023-02-18T05:11:10;96009.81;;;1.95;68.30
6096;BME280;25081;42.698;23.298;2023-02-18T05:13:39;96000.00;;;2.01;67.99
6096;BME280;25081;42.698;23.298;2023-02-18T05:16:08;96006.09;;;2.15;68.21
6096;BME280;25081;42.698;23.298;2023-02-18T05:18:37;96008.08;;;2.17;67.97
6096;BME280;25081;42.698;23.298;2023-02-18T05:21:06;96004.09;;;2.31;68.16
6096;BME280;25081;42.698;23.298;2023-02-18T05:23:36;95989.98;;;2.14;68.41
6096;BME280;25081;42.698;23.298;2023-02-18T05:26:05;95984.55;;;1.84;69.43
6096;BME280;25081;42.698;23.298;2023-02-18T05:28:33;95988.42;;;1.80;69.46
6096;BME280;25081;42.698;23.298;2023-02-18T05:31:02;95989.36;;;1.89;69.47
6096;BME280;25081;42.698;23.298;2023-02-18T05:33:31;95987.62;;;1.93;69.21
6096;BME280;25081;42.698;23.298;2023-02-18T05:35:59;95988.02;;;2.03;68.97
6096;BME280;25081;42.698;23.298;2023-02-18T05:38:28;95985.54;;;2.15;68.68
6096;BME280;25081;42.698;23.298;2023-02-18T05:40:57;95991.98;;;2.34;68.21
6096;BME280;25081;42.698;23.298;2023-02-18T05:43:25;95983.14;;;2.39;68.09
6096;BME280;25081;42.698;23.298;2023-02-18T05:45:53;95992.13;;;2.50;67.98
6096;BME280;25081;42.698;23.298;2023-02-18T05:48:22;95991.77;;;2.63;67.89
6096;BME280;25081;42.698;23.298;2023-02-18T05:50:53;95999.91;;;2.74;66.84
6096;BME280;25081;42.698;23.298;2023-02-18T05:53:22;96000.73;;;2.74;66.56
6096;BME280;25081;42.698;23.298;2023-02-18T05:55:51;96002.80;;;2.84;66.55
6096;BME280;25081;42.698;23.298;2023-02-18T05:58:19;96003.27;;;3.02;66.21
6096;BME280;25081;42.698;23.298;2023-02-18T06:00:48;96002.50;;;3.09;65.27
6096;BME280;25081;42.698;23.298;2023-02-18T06:03:16;96017.08;;;3.00;65.57
6096;BME280;25081;42.698;23.298;2023-02-18T06:05:47;96023.27;;;2.91;66.75
6096;BME280;25081;42.698;23.298;2023-02-18T06:08:13;96013.86;;;3.10;66.24
6096;BME280;25081;42.698;23.298;2023-02-18T06:10:42;96002.80;;;3.28;65.47
6096;BME280;25081;42.698;23.298;2023-02-18T06:13:10;96004.23;;;3.23;65.64
6096;BME280;25081;42.698;23.298;2023-02-18T06:15:39;96006.64;;;3.38;65.30
6096;BME280;25081;42.698;23.298;2023-02-18T06:18:08;96005.78;;;3.63;64.30
6096;BME280;25081;42.698;23.298;2023-02-18T06:20:36;96002.66;;;3.64;63.98
6096;BME280;25081;42.698;23.298;2023-02-18T06:23:05;96007.85;;;3.82;64.13
6096;BME280;25081;42.698;23.298;2023-02-18T06:25:34;96003.52;;;3.68;64.37
6096;BME280;25081;42.698;23.298;2023-02-18T06:28:03;96008.17;;;3.79;64.25
6096;BME280;25081;42.698;23.298;2023-02-18T06:30:32;95993.30;;;3.69;64.44
6096;BME280;25081;42.698;23.298;2023-02-18T06:33:01;95990.67;;;3.73;64.20
6096;BME280;25081;42.698;23.298;2023-02-18T06:35:30;95985.27;;;3.79;64.28
6096;BME280;25081;42.698;23.298;2023-02-18T06:37:59;95986.16;;;4.04;63.54
6096;BME280;25081;42.698;23.298;2023-02-18T06:40:27;95991.17;;;4.23;62.57
6096;BME280;25081;42.698;23.298;2023-02-18T06:42:56;95994.70;;;4.44;62.40
6096;BME280;25081;42.698;23.298;2023-02-18T06:45:25;95988.46;;;4.66;61.94
6096;BME280;25081;42.698;23.298;2023-02-18T06:47:54;95994.08;;;4.87;60.84
6096;BME280;25081;42.698;23.298;2023-02-18T06:50:22;95988.46;;;5.06;59.98
6096;BME280;25081;42.698;23.298;2023-02-18T06:52:51;95992.59;;;5.13;59.79
6096;BME280;25081;42.698;23.298;2023-02-18T06:55:20;95984.64;;;5.25;59.23
6096;BME280;25081;42.698;23.298;2023-02-18T06:57:50;95978.08;;;4.84;59.35
6096;BME280;25081;42.698;23.298;2023-02-18T07:00:20;95991.91;;;4.70;59.99
6096;BME280;25081;42.698;23.298;2023-02-18T07:02:50;95992.60;;;4.84;60.02
6096;BME280;25081;42.698;23.298;2023-02-18T07:05:18;95987.31;;;5.05;59.19
6096;BME280;25081;42.698;23.298;2023-02-18T07:07:47;95998.34;;;5.29;59.64
6096;BME280;25081;42.698;23.298;2023-02-18T07:10:16;95987.93;;;5.35;58.59
6096;BME280;25081;42.698;23.298;2023-02-18T07:12:45;95989.87;;;5.62;57.45
6096;BME280;25081;42.698;23.298;2023-02-18T07:15:14;95979.11;;;5.63;57.25
6096;BME280;25081;42.698;23.298;2023-02-18T07:17:42;95969.52;;;5.58;57.14
6096;BME280;25081;42.698;23.298;2023-02-18T07:20:11;95978.39;;;5.82;57.00
6096;BME280;25081;42.698;23.298;2023-02-18T07:22:40;95979.63;;;6.06;56.23
6096;BME280;25081;42.698;23.298;2023-02-18T07:25:09;95971.22;;;6.38;55.54
6096;BME280;25081;42.698;23.298;2023-02-18T07:27:38;95967.06;;;6.62;54.94
6096;BME280;25081;42.698;23.298;2023-02-18T07:30:08;95964.17;;;6.76;53.86
6096;BME280;25081;42.698;23.298;2023-02-18T07:32:38;95971.16;;;6.92;54.33
6096;BME280;25081;42.698;23.298;2023-02-18T07:35:07;95964.15;;;7.17;53.34
6096;BME280;25081;42.698;23.298;2023-02-18T07:37:35;95972.26;;;7.54;52.01
6096;BME280;25081;42.698;23.298;2023-02-18T07:40:06;95974.11;;;7.49;51.99
6096;BME280;25081;42.698;23.298;2023-02-18T07:45:04;95982.56;;;7.82;51.27
6096;BME280;25081;42.698;23.298;2023-02-18T07:47:33;95985.11;;;7.27;51.23
6096;BME280;25081;42.698;23.298;2023-02-18T07:50:02;95993.69;;;6.42;53.35
6096;BME280;25081;42.698;23.298;2023-02-18T07:52:31;95991.86;;;6.92;53.32
6096;BME280;25081;42.698;23.298;2023-02-18T07:55:00;95980.93;;;7.48;51.00
6096;BME280;25081;42.698;23.298;2023-02-18T07:57:29;95993.25;;;7.26;51.16
6096;BME280;25081;42.698;23.298;2023-02-18T07:59:58;95991.23;;;7.61;50.49
6096;BME280;25081;42.698;23.298;2023-02-18T08:02:27;95982.81;;;7.58;51.02
6096;BME280;25081;42.698;23.298;2023-02-18T08:04:55;95983.19;;;7.69;50.56
6096;BME280;25081;42.698;23.298;2023-02-18T08:07:24;95984.91;;;8.21;49.44
6096;BME280;25081;42.698;23.298;2023-02-18T08:09:53;95980.17;;;8.02;49.95
6096;BME280;25081;42.698;23.298;2023-02-18T08:12:21;95981.93;;;8.93;48.48
6096;BME280;25081;42.698;23.298;2023-02-18T08:14:50;95976.87;;;9.47;46.61
6096;BME280;25081;42.698;23.298;2023-02-18T08:17:19;95970.53;;;9.09;47.13
6096;BME280;25081;42.698;23.298;2023-02-18T08:19:48;95959.88;;;9.48;46.86
6096;BME280;25081;42.698;23.298;2023-02-18T08:22:18;95948.70;;;11.78;42.46
6096;BME280;25081;42.698;23.298;2023-02-18T08:24:47;95947.20;;;12.92;39.25
6096;BME280;25081;42.698;23.298;2023-02-18T08:27:16;95945.55;;;12.59;39.47
6096;BME280;25081;42.698;23.298;2023-02-18T08:29:45;95947.19;;;11.53;41.40
6096;BME280;25081;42.698;23.298;2023-02-18T08:32:13;95955.94;;;9.89;44.75
6096;BME280;25081;42.698;23.298;2023-02-18T08:34:42;95951.32;;;10.11;45.16
6096;BME280;25081;42.698;23.298;2023-02-18T08:37:11;95948.13;;;10.05;45.22
6096;BME280;25081;42.698;23.298;2023-02-18T08:39:41;95953.87;;;10.09;45.78
6096;BME280;25081;42.698;23.298;2023-02-18T08:42:10;95942.72;;;9.92;45.74
6096;BME280;25081;42.698;23.298;2023-02-18T08:44:39;95948.28;;;9.45;46.63
6096;BME280;25081;42.698;23.298;2023-02-18T08:47:08;95941.19;;;9.93;46.04
6096;BME280;25081;42.698;23.298;2023-02-18T08:49:37;95944.00;;;10.02;45.96
6096;BME280;25081;42.698;23.298;2023-02-18T08:52:06;95942.85;;;10.36;45.23
6096;BME280;25081;42.698;23.298;2023-02-18T08:54:35;95949.74;;;10.84;44.46
6096;BME280;25081;42.698;23.298;2023-02-18T08:57:04;95945.86;;;11.53;42.88
6096;BME280;25081;42.698;23.298;2023-02-18T08:59:33;95946.04;;;11.71;41.84
6096;BME280;25081;42.698;23.298;2023-02-18T09:02:03;95947.09;;;11.51;41.16
6096;BME280;25081;42.698;23.298;2023-02-18T09:04:31;95938.70;;;11.96;41.03
6096;BME280;25081;42.698;23.298;2023-02-18T09:06:59;95941.66;;;12.03;40.42
6096;BME280;25081;42.698;23.298;2023-02-18T09:09:28;95938.55;;;11.64;40.98
6096;BME280;25081;42.698;23.298;2023-02-18T09:11:57;95950.94;;;12.30;40.00
6096;BME280;25081;42.698;23.298;2023-02-18T09:14:25;95938.36;;;12.91;38.46
6096;BME280;25081;42.698;23.298;2023-02-18T09:16:56;95926.98;;;13.11;37.86
6096;BME280;25081;42.698;23.298;2023-02-18T09:19:25;95939.98;;;12.60;38.49
6096;BME280;25081;42.698;23.298;2023-02-18T09:21:53;95935.86;;;13.28;38.06
6096;BME280;25081;42.698;23.298;2023-02-18T09:24:22;95937.70;;;14.41;35.80
6096;BME280;25081;42.698;23.298;2023-02-18T09:26:51;95937.39;;;14.68;34.77
6096;BME280;25081;42.698;23.298;2023-02-18T09:29:20;95928.38;;;15.25;34.35
6096;BME280;25081;42.698;23.298;2023-02-18T09:31:48;95917.58;;;15.22;33.49
6096;BME280;25081;42.698;23.298;2023-02-18T09:34:17;95909.45;;;16.51;32.43
6096;BME280;25081;42.698;23.298;2023-02-18T09:36:45;95913.68;;;17.04;31.57
6096;BME280;25081;42.698;23.298;2023-02-18T09:39:14;95901.27;;;18.94;28.42
6096;BME280;25081;42.698;23.298;2023-02-18T09:41:43;95901.27;;;18.94;28.42
6096;BME280;25081;42.698;23.298;2023-02-18T09:44:13;95894.63;;;20.13;26.43
6096;BME280;25081;42.698;23.298;2023-02-18T09:46:45;95892.55;;;20.30;25.57
6096;BME280;25081;42.698;23.298;2023-02-18T09:49:15;95895.80;;;20.27;25.88
6096;BME280;25081;42.698;23.298;2023-02-18T09:51:43;95894.00;;;19.58;26.07
6096;BME280;25081;42.698;23.298;2023-02-18T09:54:13;95901.20;;;18.88;27.11
6096;BME280;25081;42.698;23.298;2023-02-18T09:56:40;95903.02;;;19.10;27.54
6096;BME280;25081;42.698;23.298;2023-02-18T09:59:12;95892.18;;;18.78;27.47
6096;BME280;25081;42.698;23.298;2023-02-18T10:01:40;95888.78;;;18.00;28.11
6096;BME280;25081;42.698;23.298;2023-02-18T10:04:12;95884.91;;;17.93;28.11
6096;BME280;25081;42.698;23.298;2023-02-18T10:06:39;95886.04;;;18.39;28.00
6096;BME280;25081;42.698;23.298;2023-02-18T10:09:14;95876.17;;;20.07;25.82
6096;BME280;25081;42.698;23.298;2023-02-18T10:11:39;95865.20;;;21.37;24.17
6096;BME280;25081;42.698;23.298;2023-02-18T10:14:10;95858.12;;;22.62;22.53
6096;BME280;25081;42.698;23.298;2023-02-18T10:16:37;95859.44;;;23.19;21.99
6096;BME280;25081;42.698;23.298;2023-02-18T10:21:28;95849.41;;;23.12;20.44
6096;BME280;25081;42.698;23.298;2023-02-18T10:23:58;95856.37;;;22.27;22.06
6096;BME280;25081;42.698;23.298;2023-02-18T10:26:26;95850.52;;;21.74;21.54
6096;BME280;25081;42.698;23.298;2023-02-18T10:28:54;95846.14;;;21.86;21.63
6096;BME280;25081;42.698;23.298;2023-02-18T10:31:24;95846.12;;;22.11;20.68
6096;BME280;25081;42.698;23.298;2023-02-18T10:33:54;95840.37;;;22.18;20.71
6096;BME280;25081;42.698;23.298;2023-02-18T10:36:25;95836.70;;;21.40;21.48
6096;BME280;25081;42.698;23.298;2023-02-18T10:39:07;95846.36;;;20.62;23.27
6096;BME280;25081;42.698;23.298;2023-02-18T10:41:37;95827.02;;;20.36;22.20
6096;BME280;25081;42.698;23.298;2023-02-18T10:44:06;95831.78;;;19.58;22.92
6096;BME280;25081;42.698;23.298;2023-02-18T10:46:36;95819.46;;;20.40;22.25
6096;BME280;25081;42.698;23.298;2023-02-18T10:49:08;95825.55;;;20.75;21.57
6096;BME280;25081;42.698;23.298;2023-02-18T10:51:37;95812.29;;;20.94;21.75
6096;BME280;25081;42.698;23.298;2023-02-18T10:54:06;95805.52;;;21.37;21.58
6096;BME280;25081;42.698;23.298;2023-02-18T10:56:39;95807.66;;;21.51;21.30
6096;BME280;25081;42.698;23.298;2023-02-18T10:59:12;95802.47;;;20.57;22.22
6096;BME280;25081;42.698;23.298;2023-02-18T11:01:41;95806.67;;;20.20;22.90
6096;BME280;25081;42.698;23.298;2023-02-18T11:04:13;95811.23;;;17.90;26.45
6096;BME280;25081;42.698;23.298;2023-02-18T11:06:41;95799.67;;;16.84;26.86
6096;BME280;25081;42.698;23.298;2023-02-18T11:09:22;95799.67;;;16.84;26.86
6096;BME280;25081;42.698;23.298;2023-02-18T11:11:50;95801.28;;;18.94;24.96
6096;BME280;25081;42.698;23.298;2023-02-18T11:14:32;95801.28;;;18.94;24.96
6096;BME280;25081;42.698;23.298;2023-02-18T11:16:49;95799.68;;;19.69;23.60
6096;BME280;25081;42.698;23.298;2023-02-18T11:19:32;95787.91;;;17.62;24.91
6096;BME280;25081;42.698;23.298;2023-02-18T11:22:12;95789.05;;;16.77;26.34
6096;BME280;25081;42.698;23.298;2023-02-18T11:24:40;95789.05;;;16.77;26.34
6096;BME280;25081;42.698;23.298;2023-02-18T11:27:10;95784.91;;;15.98;28.16
6096;BME280;25081;42.698;23.298;2023-02-18T11:29:38;95784.91;;;15.98;28.16
6096;BME280;25081;42.698;23.298;2023-02-18T11:32:07;95773.66;;;16.30;27.74
6096;BME280;25081;42.698;23.298;2023-02-18T11:34:36;95757.27;;;16.46;27.83
6096;BME280;25081;42.698;23.298;2023-02-18T11:37:10;95757.27;;;16.46;27.83
6096;BME280;25081;42.698;23.298;2023-02-18T11:39:37;95747.05;;;17.32;27.28
6096;BME280;25081;42.698;23.298;2023-02-18T11:42:07;95747.05;;;17.32;27.28
6096;BME280;25081;42.698;23.298;2023-02-18T11:44:36;95744.83;;;17.87;26.31
6096;BME280;25081;42.698;23.298;2023-02-18T11:47:05;95746.13;;;17.65;26.63
6096;BME280;25081;42.698;23.298;2023-02-18T11:49:34;95730.94;;;17.37;26.64
6096;BME280;25081;42.698;23.298;2023-02-18T11:52:13;95738.72;;;17.33;27.35
6096;BME280;25081;42.698;23.298;2023-02-18T11:54:36;95738.72;;;17.33;27.35
6096;BME280;25081;42.698;23.298;2023-02-18T11:57:05;95716.80;;;17.27;27.13
6096;BME280;25081;42.698;23.298;2023-02-18T11:59:34;95720.97;;;17.76;26.51
6096;BME280;25081;42.698;23.298;2023-02-18T12:02:11;95722.07;;;17.58;26.89
6096;BME280;25081;42.698;23.298;2023-02-18T12:04:32;95722.07;;;17.58;26.89
6096;BME280;25081;42.698;23.298;2023-02-18T12:07:07;95713.28;;;17.07;27.27
6096;BME280;25081;42.698;23.298;2023-02-18T12:09:35;95714.63;;;17.07;28.02
6096;BME280;25081;42.698;23.298;2023-02-18T12:12:04;95723.42;;;17.58;28.12
6096;BME280;25081;42.698;23.298;2023-02-18T12:14:15;95714.49;;;17.16;27.94
6096;BME280;25081;42.698;23.298;2023-02-18T12:16:27;95708.79;;;16.94;28.72
6096;BME280;25081;42.698;23.298;2023-02-18T12:19:08;95708.94;;;17.04;28.23
6096;BME280;25081;42.698;23.298;2023-02-18T12:21:27;95706.66;;;17.15;28.78
6096;BME280;25081;42.698;23.298;2023-02-18T12:23:39;95710.56;;;17.05;28.71
6096;BME280;25081;42.698;23.298;2023-02-18T12:25:50;95709.02;;;16.73;28.62
6096;BME280;25081;42.698;23.298;2023-02-18T12:28:06;95709.02;;;16.73;28.62
6096;BME280;25081;42.698;23.298;2023-02-18T12:30:38;95699.27;;;16.88;29.55
6096;BME280;25081;42.698;23.298;2023-02-18T12:32:48;95679.57;;;17.24;28.81
6096;BME280;25081;42.698;23.298;2023-02-18T12:35:07;95676.16;;;17.31;28.83
6096;BME280;25081;42.698;23.298;2023-02-18T12:37:37;95674.33;;;17.15;28.76
6096;BME280;25081;42.698;23.298;2023-02-18T12:39:56;95673.41;;;17.07;28.65
6096;BME280;25081;42.698;23.298;2023-02-18T12:42:26;95667.29;;;17.11;28.72
6096;BME280;25081;42.698;23.298;2023-02-18T12:44:38;95667.29;;;17.11;28.72
6096;BME280;25081;42.698;23.298;2023-02-18T12:47:01;95670.76;;;16.71;29.15
6096;BME280;25081;42.698;23.298;2023-02-18T12:49:25;95656.83;;;16.43;29.53
6096;BME280;25081;42.698;23.298;2023-02-18T12:51:40;95656.83;;;16.43;29.53
6096;BME280;25081;42.698;23.298;2023-02-18T12:54:03;95660.69;;;16.49;29.18
6096;BME280;25081;42.698;23.298;2023-02-18T12:59:00;95650.70;;;16.47;29.49
6096;BME280;25081;42.698;23.298;2023-02-18T13:01:22;95653.39;;;16.64;29.86
6096;BME280;25081;42.698;23.298;2023-02-18T13:03:43;95659.88;;;16.82;29.36
6096;BME280;25081;42.698;23.298;2023-02-18T13:05:54;95651.64;;;16.89;29.31
6096;BME280;25081;42.698;23.298;2023-02-18T13:10:42;95665.23;;;16.80;29.37
6096;BME280;25081;42.698;23.298;2023-02-18T13:12:54;95665.23;;;16.80;29.37
6096;BME280;25081;42.698;23.298;2023-02-18T13:15:05;95663.74;;;16.70;29.65
6096;BME280;25081;42.698;23.298;2023-02-18T13:17:15;95660.80;;;16.71;29.75
6096;BME280;25081;42.698;23.298;2023-02-18T13:19:27;95660.80;;;16.71;29.75
6096;BME280;25081;42.698;23.298;2023-02-18T13:21:37;95663.89;;;16.80;29.43
6096;BME280;25081;42.698;23.298;2023-02-18T13:23:49;95660.27;;;16.72;30.87
6096;BME280;25081;42.698;23.298;2023-02-18T13:26:00;95660.27;;;16.72;30.87
6096;BME280;25081;42.698;23.298;2023-02-18T13:28:14;95663.19;;;16.37;31.33
6096;BME280;25081;42.698;23.298;2023-02-18T13:30:24;95670.31;;;16.28;31.67